createdAt,value
2019-01-13T00:01:58.008Z,7.26
2019-01-13T00:04:29.314Z,7.25
2019-01-13T00:07:00.449Z,7.25
2019-01-13T00:09:31.683Z,7.27
2019-01-13T00:12:02.914Z,7.27
2019-01-13T00:14:34.212Z,7.25
2019-01-13T00:17:05.543Z,7.21
2019-01-13T00:19:36.797Z,7.19
2019-01-13T00:22:09.725Z,7.17
2019-01-13T00:24:40.876Z,7.15
2019-01-13T00:27:12.057Z,7.12
2019-01-13T00:29:43.261Z,7.11
2019-01-13T00:32:14.491Z,7.11
2019-01-13T00:34:45.684Z,7.10
2019-01-13T00:37:16.905Z,7.08
2019-01-13T00:39:48.107Z,7.08
2019-01-13T00:42:19.399Z,7.06
2019-01-13T00:44:50.632Z,7.03
2019-01-13T00:47:21.777Z,6.99
2019-01-13T00:49:52.955Z,6.94
2019-01-13T00:52:24.241Z,6.94
2019-01-13T00:54:55.543Z,6.92
2019-01-13T00:57:26.788Z,6.92
2019-01-13T00:59:57.976Z,6.92
2019-01-13T01:02:29.218Z,6.93
2019-01-13T01:05:00.419Z,6.93
2019-01-13T01:07:31.766Z,6.95
2019-01-13T01:10:02.989Z,6.97
2019-01-13T01:12:34.314Z,6.99
2019-01-13T01:15:06.933Z,6.99
2019-01-13T01:17:38.214Z,6.98
2019-01-13T01:20:10.997Z,6.99
2019-01-13T01:22:42.322Z,7.02
2019-01-13T01:25:14.418Z,7.03
2019-01-13T01:27:45.993Z,7.05
2019-01-13T01:30:18.862Z,7.06
2019-01-13T01:32:50.062Z,7.08
2019-01-13T01:35:21.250Z,7.10
2019-01-13T01:37:52.382Z,7.12
2019-01-13T01:40:23.699Z,7.14
2019-01-13T01:42:54.855Z,7.16
2019-01-13T01:45:26.020Z,7.17
2019-01-13T01:47:57.207Z,7.17
2019-01-13T01:50:28.487Z,7.17
2019-01-13T01:52:59.636Z,7.18
2019-01-13T01:55:30.826Z,7.17
2019-01-13T01:58:02.031Z,7.18
2019-01-13T02:00:40.341Z,7.18
2019-01-13T02:03:08.600Z,7.17
2019-01-13T02:05:39.445Z,7.16
2019-01-13T02:08:10.627Z,7.17
2019-01-13T02:10:41.841Z,7.20
2019-01-13T02:13:13.069Z,7.23
2019-01-13T02:15:44.331Z,7.24
2019-01-13T02:18:15.471Z,7.25
2019-01-13T02:20:46.784Z,7.27
2019-01-13T02:23:17.910Z,7.27
2019-01-13T02:25:49.090Z,7.29
2019-01-13T02:28:20.252Z,7.30
2019-01-13T02:30:51.498Z,7.29
2019-01-13T02:33:23.075Z,7.29
2019-01-13T02:35:54.353Z,7.30
2019-01-13T02:38:25.628Z,7.31
2019-01-13T02:40:56.821Z,7.31
2019-01-13T02:43:28.121Z,7.30
2019-01-13T02:45:59.315Z,7.32
2019-01-13T02:48:30.526Z,7.32
2019-01-13T02:51:01.727Z,7.32
2019-01-13T02:53:32.970Z,7.29
2019-01-13T02:56:04.353Z,7.28
2019-01-13T02:58:35.535Z,7.26
2019-01-13T03:01:06.782Z,7.25
2019-01-13T03:03:37.930Z,7.24
2019-01-13T03:06:09.121Z,7.25
2019-01-13T03:08:40.267Z,7.23
2019-01-13T03:11:11.452Z,7.23
2019-01-13T03:13:42.599Z,7.24
2019-01-13T03:16:13.872Z,7.23
2019-01-13T03:18:45.166Z,7.23
2019-01-13T03:21:16.422Z,7.22
2019-01-13T03:23:47.646Z,7.23
2019-01-13T03:26:18.845Z,7.22
2019-01-13T03:28:50.011Z,7.21
2019-01-13T03:31:21.299Z,7.20
2019-01-13T03:33:52.478Z,7.19
2019-01-13T03:36:23.708Z,7.20
2019-01-13T03:38:54.886Z,7.21
2019-01-13T03:41:26.080Z,7.20
2019-01-13T03:43:57.700Z,7.21
2019-01-13T03:46:28.868Z,7.22
2019-01-13T03:49:00.094Z,7.22
2019-01-13T03:51:31.213Z,7.22
2019-01-13T03:54:02.439Z,7.22
2019-01-13T03:56:33.704Z,7.22
2019-01-13T03:59:04.864Z,7.23
2019-01-13T04:01:36.155Z,7.24
2019-01-13T04:04:08.402Z,7.26
2019-01-13T04:06:39.649Z,7.29
2019-01-13T04:09:10.870Z,7.31
2019-01-13T04:11:42.082Z,7.32
2019-01-13T04:14:13.347Z,7.33
2019-01-13T04:16:44.622Z,7.36
2019-01-13T04:19:15.787Z,7.37
2019-01-13T04:21:46.938Z,7.39
2019-01-13T04:24:18.316Z,7.38
2019-01-13T04:26:49.451Z,7.38
2019-01-13T04:29:20.582Z,7.41
2019-01-13T04:31:51.801Z,7.42
2019-01-13T04:34:23.106Z,7.43
2019-01-13T04:36:54.285Z,7.45
2019-01-13T04:39:25.423Z,7.45
2019-01-13T04:41:56.646Z,7.47
2019-01-13T04:44:27.808Z,7.47
2019-01-13T04:46:58.974Z,7.49
2019-01-13T04:49:30.129Z,7.50
2019-01-13T04:52:01.426Z,7.52
2019-01-13T04:54:32.684Z,7.53
2019-01-13T04:57:03.821Z,7.53
2019-01-13T04:59:35.042Z,7.52
2019-01-13T05:02:06.259Z,7.52
2019-01-13T05:04:37.501Z,7.54
2019-01-13T05:07:08.754Z,7.54
2019-01-13T05:09:39.995Z,7.53
2019-01-13T05:12:11.352Z,7.54
2019-01-13T05:14:42.536Z,7.54
2019-01-13T05:17:13.758Z,7.55
2019-01-13T05:19:44.896Z,7.56
2019-01-13T05:22:16.095Z,7.56
2019-01-13T05:24:47.256Z,7.57
2019-01-13T05:27:18.415Z,7.56
2019-01-13T05:29:49.570Z,7.55
2019-01-13T05:32:20.733Z,7.53
2019-01-13T05:34:51.959Z,7.53
2019-01-13T05:37:23.183Z,7.50
2019-01-13T05:39:54.368Z,7.45
2019-01-13T05:42:25.664Z,7.42
2019-01-13T05:44:56.848Z,7.38
2019-01-13T05:47:28.006Z,7.36
2019-01-13T05:49:59.310Z,7.36
2019-01-13T05:52:30.519Z,7.33
2019-01-13T05:55:01.743Z,7.32
2019-01-13T05:57:33.006Z,7.29
2019-01-13T06:00:05.360Z,7.29
2019-01-13T06:02:36.633Z,7.27
2019-01-13T06:05:08.259Z,7.27
2019-01-13T06:07:39.545Z,7.27
2019-01-13T06:10:12.251Z,7.27
2019-01-13T06:12:43.447Z,7.29
2019-01-13T06:15:18.101Z,7.28
2019-01-13T06:17:49.264Z,7.29
2019-01-13T06:20:22.408Z,7.28
2019-01-13T06:22:53.588Z,7.29
2019-01-13T06:25:24.827Z,7.29
2019-01-13T06:27:56.315Z,7.29
2019-01-13T06:30:27.500Z,7.29
2019-01-13T06:32:58.801Z,7.28
2019-01-13T06:35:29.951Z,7.30
2019-01-13T06:38:01.118Z,7.31
2019-01-13T06:40:32.355Z,7.31
2019-01-13T06:43:03.578Z,7.30
2019-01-13T06:45:34.815Z,7.29
2019-01-13T06:48:06.060Z,7.29
2019-01-13T06:50:37.202Z,7.29
2019-01-13T06:53:08.356Z,7.29
2019-01-13T06:55:39.725Z,7.29
2019-01-13T06:58:10.858Z,7.31
2019-01-13T07:00:42.045Z,7.31
2019-01-13T07:03:13.203Z,7.32
2019-01-13T07:05:44.425Z,7.34
2019-01-13T07:08:15.600Z,7.34
2019-01-13T07:10:46.844Z,7.35
2019-01-13T07:13:18.016Z,7.35
2019-01-13T07:15:49.237Z,7.37
2019-01-13T07:18:20.487Z,7.38
2019-01-13T07:20:51.698Z,7.40
2019-01-13T07:23:22.961Z,7.40
2019-01-13T07:25:54.066Z,7.41
2019-01-13T07:28:25.184Z,7.42
2019-01-13T07:30:56.428Z,7.42
2019-01-13T07:33:27.804Z,7.42
2019-01-13T07:35:59.052Z,7.43
2019-01-13T07:38:30.311Z,7.43
2019-01-13T07:41:01.732Z,7.41
2019-01-13T07:43:32.911Z,7.40
2019-01-13T07:46:04.197Z,7.38
2019-01-13T07:48:35.492Z,7.36
2019-01-13T07:51:06.835Z,7.34
2019-01-13T07:53:38.603Z,7.30
2019-01-13T07:56:09.819Z,7.29
2019-01-13T07:58:41.009Z,7.24
2019-01-13T08:01:12.177Z,7.21
2019-01-13T08:03:43.590Z,7.19
2019-01-13T08:06:14.721Z,7.18
2019-01-13T08:08:45.895Z,7.13
2019-01-13T08:11:17.079Z,7.11
2019-01-13T08:13:48.434Z,7.09
2019-01-13T08:16:19.580Z,7.07
2019-01-13T08:18:50.894Z,7.05
2019-01-13T08:21:22.096Z,7.02
2019-01-13T08:23:53.282Z,7.00
2019-01-13T08:26:24.462Z,6.98
2019-01-13T08:28:55.869Z,6.95
2019-01-13T08:31:27.185Z,6.94
2019-01-13T08:33:58.774Z,6.95
2019-01-13T08:36:30.404Z,6.96
2019-01-13T08:39:01.978Z,6.97
2019-01-13T08:41:34.096Z,6.97
2019-01-13T08:44:05.708Z,7.00
2019-01-13T08:46:37.668Z,7.00
2019-01-13T08:49:09.586Z,7.02
2019-01-13T08:51:41.295Z,7.03
2019-01-13T08:54:13.166Z,7.02
2019-01-13T08:56:44.797Z,7.03
2019-01-13T08:59:16.397Z,7.05
2019-01-13T09:01:47.814Z,7.06
2019-01-13T09:04:19.457Z,7.07
2019-01-13T09:06:51.398Z,7.09
2019-01-13T09:09:23.602Z,7.08
2019-01-13T09:11:55.343Z,7.11
2019-01-13T09:14:27.370Z,7.12
2019-01-13T09:16:58.849Z,7.12
2019-01-13T09:19:30.729Z,7.15
2019-01-13T09:22:02.182Z,7.16
2019-01-13T09:24:33.323Z,7.21
2019-01-13T09:27:04.592Z,7.24
2019-01-13T09:29:42.303Z,7.27
2019-01-13T09:32:08.754Z,7.29
2019-01-13T09:34:39.999Z,7.35
2019-01-13T09:37:11.147Z,7.36
2019-01-13T09:39:42.334Z,7.38
2019-01-13T09:42:13.634Z,7.42
2019-01-13T09:44:45.012Z,7.44
2019-01-13T09:47:16.160Z,7.46
2019-01-13T09:49:49.949Z,7.49
2019-01-13T09:52:20.121Z,7.52
2019-01-13T09:54:51.327Z,7.55
2019-01-13T09:57:22.481Z,7.59
2019-01-13T09:59:53.858Z,7.60
2019-01-13T10:02:25.100Z,7.62
2019-01-13T10:04:56.219Z,7.63
2019-01-13T10:07:27.488Z,7.63
2019-01-13T10:09:58.733Z,7.67
2019-01-13T10:12:29.950Z,7.68
2019-01-13T10:15:01.092Z,7.69
2019-01-13T10:17:32.355Z,7.69
2019-01-13T10:20:04.010Z,7.70
2019-01-13T10:22:35.242Z,7.70
2019-01-13T10:25:06.713Z,7.68
2019-01-13T10:27:38.207Z,7.69
2019-01-13T10:30:12.915Z,7.70
2019-01-13T10:32:44.064Z,7.70
2019-01-13T10:35:16.211Z,7.71
2019-01-13T10:37:47.428Z,7.70
2019-01-13T10:40:20.091Z,7.72
2019-01-13T10:42:51.262Z,7.72
2019-01-13T10:45:22.447Z,7.76
2019-01-13T10:47:53.915Z,7.76
2019-01-13T10:50:27.211Z,7.78
2019-01-13T10:53:00.643Z,7.80
2019-01-13T10:55:32.842Z,7.80
2019-01-13T10:58:04.444Z,7.82
2019-01-13T11:00:36.922Z,7.83
2019-01-13T11:03:08.252Z,7.84
2019-01-13T11:05:39.519Z,7.86
2019-01-13T11:08:11.676Z,7.88
2019-01-13T11:10:43.300Z,7.91
2019-01-13T11:13:14.400Z,7.92
2019-01-13T11:15:45.626Z,7.93
2019-01-13T11:18:16.854Z,7.95
2019-01-13T11:20:48.011Z,7.99
2019-01-13T11:23:19.306Z,8.01
2019-01-13T11:25:50.473Z,8.08
2019-01-13T11:28:21.693Z,8.15
2019-01-13T11:30:52.906Z,8.21
2019-01-13T11:33:24.211Z,8.27
2019-01-13T11:35:55.374Z,8.33
2019-01-13T11:38:26.632Z,8.40
2019-01-13T11:40:58.013Z,8.45
2019-01-13T11:43:29.450Z,8.47
2019-01-13T11:46:00.767Z,8.50
2019-01-13T11:48:43.769Z,8.52
2019-01-13T11:51:15.001Z,8.53
2019-01-13T11:53:46.139Z,8.55
2019-01-13T11:56:17.428Z,8.58
2019-01-13T11:58:48.594Z,8.59
2019-01-13T12:01:19.754Z,8.61
2019-01-13T12:03:51.101Z,8.62
2019-01-13T12:06:22.324Z,8.62
2019-01-13T12:08:53.542Z,8.64
2019-01-13T12:11:25.004Z,8.64
2019-01-13T12:13:56.659Z,8.66
2019-01-13T12:16:28.126Z,8.67
2019-01-13T12:19:00.781Z,8.69
2019-01-13T12:21:32.190Z,8.69
2019-01-13T12:24:03.612Z,8.69
2019-01-13T12:26:35.074Z,8.72
2019-01-13T12:29:06.510Z,8.74
2019-01-13T12:31:37.950Z,8.72
2019-01-13T12:34:09.247Z,8.72
2019-01-13T12:36:41.458Z,8.73
2019-01-13T12:39:14.949Z,8.70
2019-01-13T12:41:46.810Z,8.71
2019-01-13T12:44:17.998Z,8.67
2019-01-13T12:46:49.209Z,8.70
2019-01-13T12:49:20.394Z,8.71
2019-01-13T12:51:51.667Z,8.71
2019-01-13T12:54:22.796Z,8.71
2019-01-13T12:56:54.101Z,8.72
2019-01-13T12:59:25.415Z,8.72
2019-01-13T13:01:56.640Z,8.73
2019-01-13T13:04:27.836Z,8.70
2019-01-13T13:06:59.122Z,8.71
2019-01-13T13:09:30.354Z,8.72
2019-01-13T13:12:01.666Z,8.71
2019-01-13T13:14:33.040Z,8.70
2019-01-13T13:17:04.328Z,8.72
2019-01-13T13:19:35.519Z,8.71
2019-01-13T13:22:06.822Z,8.73
2019-01-13T13:24:38.167Z,8.74
2019-01-13T13:27:09.724Z,8.74
2019-01-13T13:29:41.167Z,8.73
2019-01-13T13:32:12.385Z,8.76
2019-01-13T13:34:43.675Z,8.76
2019-01-13T13:37:14.906Z,8.74
2019-01-13T13:39:46.246Z,8.75
2019-01-13T13:42:17.424Z,8.73
2019-01-13T13:44:48.608Z,8.72
2019-01-13T13:47:19.834Z,8.72
2019-01-13T13:49:51.214Z,8.73
2019-01-13T13:52:22.396Z,8.74
2019-01-13T13:54:53.781Z,8.76
2019-01-13T13:57:24.984Z,8.76
2019-01-13T13:59:57.770Z,8.77
2019-01-13T14:02:29.038Z,8.78
2019-01-13T14:05:00.718Z,8.79
2019-01-13T14:07:32.013Z,8.79
2019-01-13T14:10:03.370Z,8.82
2019-01-13T14:12:34.611Z,8.84
2019-01-13T14:15:06.417Z,8.86
2019-01-13T14:17:37.870Z,8.90
2019-01-13T14:20:11.555Z,8.91
2019-01-13T14:22:42.779Z,8.92
2019-01-13T14:25:14.050Z,8.97
2019-01-13T14:27:45.339Z,8.99
2019-01-13T14:30:19.027Z,9.02
2019-01-13T14:32:50.154Z,9.05
2019-01-13T14:35:21.341Z,9.08
2019-01-13T14:37:53.447Z,9.09
2019-01-13T14:40:25.648Z,9.10
2019-01-13T14:42:56.858Z,9.11
2019-01-13T14:45:28.631Z,9.14
2019-01-13T14:48:00.032Z,9.15
2019-01-13T14:50:32.500Z,9.18
2019-01-13T14:53:05.339Z,9.21
2019-01-13T14:55:36.579Z,9.23
2019-01-13T14:58:09.116Z,9.23
2019-01-13T15:00:40.384Z,9.25
2019-01-13T15:03:11.626Z,9.27
2019-01-13T15:05:43.044Z,9.27
2019-01-13T15:08:14.380Z,9.28
2019-01-13T15:10:45.641Z,9.27
2019-01-13T15:13:16.826Z,9.26
2019-01-13T15:15:48.128Z,9.26
2019-01-13T15:18:19.316Z,9.25
2019-01-13T15:20:50.764Z,9.25
2019-01-13T15:23:22.049Z,9.21
2019-01-13T15:25:53.204Z,9.20
2019-01-13T15:28:27.350Z,9.17
2019-01-13T15:30:58.542Z,9.18
2019-01-13T15:33:29.862Z,9.16
2019-01-13T15:36:01.138Z,9.13
2019-01-13T15:38:32.409Z,9.14
2019-01-13T15:41:03.711Z,9.16
2019-01-13T15:43:35.051Z,9.16
2019-01-13T15:46:06.319Z,9.16
2019-01-13T15:48:37.566Z,9.17
2019-01-13T15:51:08.841Z,9.17
2019-01-13T15:53:40.054Z,9.15
2019-01-13T15:56:12.191Z,9.16
2019-01-13T15:58:43.329Z,9.15
2019-01-13T16:01:14.536Z,9.14
2019-01-13T16:03:45.725Z,9.13
2019-01-13T16:06:16.997Z,9.11
2019-01-13T16:08:48.288Z,9.10
2019-01-13T16:11:19.490Z,9.07
2019-01-13T16:13:50.780Z,9.05
2019-01-13T16:16:21.982Z,9.01
2019-01-13T16:18:53.434Z,9.00
2019-01-13T16:21:24.618Z,8.98
2019-01-13T16:23:56.805Z,8.95
2019-01-13T16:26:27.974Z,8.95
2019-01-13T16:28:59.158Z,8.95
2019-01-13T16:31:30.323Z,8.93
2019-01-13T16:34:02.554Z,8.91
2019-01-13T16:36:33.936Z,8.92
2019-01-13T16:39:08.017Z,8.91
2019-01-13T16:41:39.275Z,8.91
2019-01-13T16:44:10.426Z,8.88
2019-01-13T16:46:43.597Z,8.89
2019-01-13T16:49:14.986Z,8.88
2019-01-13T16:51:46.300Z,8.90
2019-01-13T16:54:17.639Z,8.88
2019-01-13T16:56:48.881Z,8.87
2019-01-13T16:59:20.077Z,8.88
2019-01-13T17:01:51.377Z,8.89
2019-01-13T17:04:28.637Z,8.88
2019-01-13T17:06:55.688Z,8.88
2019-01-13T17:09:26.971Z,8.87
2019-01-13T17:11:58.265Z,8.87
2019-01-13T17:14:29.447Z,8.88
2019-01-13T17:17:00.797Z,8.88
2019-01-13T17:19:32.070Z,8.88
2019-01-13T17:22:03.242Z,8.90
2019-01-13T17:24:34.424Z,8.93
2019-01-13T17:27:05.643Z,8.95
2019-01-13T17:29:36.889Z,8.98
2019-01-13T17:32:08.133Z,9.01
2019-01-13T17:34:39.379Z,9.02
2019-01-13T17:37:10.677Z,9.04
2019-01-13T17:39:41.855Z,9.06
2019-01-13T17:42:13.141Z,9.08
2019-01-13T17:44:44.418Z,9.07
2019-01-13T17:47:15.766Z,9.09
2019-01-13T17:49:46.948Z,9.08
2019-01-13T17:52:19.139Z,9.06
2019-01-13T17:54:50.345Z,9.06
2019-01-13T17:57:21.700Z,9.02
2019-01-13T17:59:52.873Z,8.99
2019-01-13T18:02:24.213Z,8.83
2019-01-13T18:04:55.434Z,8.63
2019-01-13T18:07:27.614Z,8.48
2019-01-13T18:09:58.834Z,8.31
2019-01-13T18:12:30.015Z,8.17
2019-01-13T18:15:01.312Z,8.03
2019-01-13T18:17:32.511Z,7.93
2019-01-13T18:20:05.486Z,7.88
2019-01-13T18:22:36.797Z,7.80
2019-01-13T18:25:08.148Z,7.72
2019-01-13T18:27:39.416Z,7.66
2019-01-13T18:30:22.687Z,7.61
2019-01-13T18:32:54.086Z,7.57
2019-01-13T18:35:25.486Z,7.52
2019-01-13T18:37:57.233Z,7.49
2019-01-13T18:40:28.991Z,7.45
2019-01-13T18:43:13.151Z,7.43
2019-01-13T18:45:45.469Z,7.41
2019-01-13T18:48:19.360Z,7.38
2019-01-13T18:50:51.069Z,7.36
2019-01-13T18:53:22.329Z,7.36
2019-01-13T18:55:53.512Z,7.33
2019-01-13T18:58:24.712Z,7.32
2019-01-13T19:00:55.941Z,7.34
2019-01-13T19:03:28.166Z,7.35
2019-01-13T19:05:59.548Z,7.34
2019-01-13T19:08:30.789Z,7.35
2019-01-13T19:11:28.402Z,7.37
2019-01-13T19:14:33.767Z,7.36
2019-01-13T19:17:07.190Z,7.37
2019-01-13T19:19:48.832Z,7.37
2019-01-13T19:22:20.501Z,7.36
2019-01-13T19:24:58.601Z,7.37
2019-01-13T19:27:29.839Z,7.37
2019-01-13T19:30:01.067Z,7.39
2019-01-13T19:32:32.234Z,7.41
2019-01-13T19:35:04.759Z,7.40
2019-01-13T19:37:36.215Z,7.41
2019-01-13T19:40:08.922Z,7.39
2019-01-13T19:42:40.111Z,7.38
2019-01-13T19:45:12.537Z,7.38
2019-01-13T19:47:43.777Z,7.39
2019-01-13T19:50:17.324Z,7.40
2019-01-13T19:52:50.268Z,7.41
2019-01-13T19:55:21.478Z,7.43
2019-01-13T19:57:55.762Z,7.43
2019-01-13T20:00:29.772Z,7.46
2019-01-13T20:03:01.369Z,7.48
2019-01-13T20:05:32.654Z,7.50
2019-01-13T20:08:04.126Z,7.53
2019-01-13T20:10:35.317Z,7.56
2019-01-13T20:13:06.583Z,7.58
2019-01-13T20:15:38.010Z,7.61
2019-01-13T20:18:09.190Z,7.64
2019-01-13T20:20:40.404Z,7.68
2019-01-13T20:23:11.632Z,7.70
2019-01-13T20:25:42.808Z,7.74
2019-01-13T20:28:14.017Z,7.78
2019-01-13T20:30:45.229Z,7.80
2019-01-13T20:33:16.490Z,7.82
2019-01-13T20:35:47.797Z,7.84
2019-01-13T20:38:19.043Z,7.86
2019-01-13T20:40:50.344Z,7.87
2019-01-13T20:43:21.589Z,7.88
2019-01-13T20:45:52.774Z,7.90
2019-01-13T20:48:23.998Z,7.90
2019-01-13T20:50:55.253Z,7.92
2019-01-13T20:53:26.580Z,7.93
2019-01-13T20:55:57.888Z,7.94
2019-01-13T20:58:29.240Z,7.95
2019-01-13T21:01:00.617Z,7.93
2019-01-13T21:03:31.891Z,7.93
2019-01-13T21:06:03.236Z,7.92
2019-01-13T21:08:34.553Z,7.90
2019-01-13T21:11:05.835Z,7.89
2019-01-13T21:13:36.982Z,7.85
2019-01-13T21:16:08.218Z,7.82
2019-01-13T21:18:39.460Z,7.76
2019-01-13T21:21:10.692Z,7.71
2019-01-13T21:23:42.051Z,7.67
2019-01-13T21:26:13.332Z,7.62
2019-01-13T21:28:44.741Z,7.60
2019-01-13T21:31:15.987Z,7.58
2019-01-13T21:33:47.132Z,7.57
2019-01-13T21:36:18.412Z,7.56
2019-01-13T21:38:51.190Z,7.55
2019-01-13T21:41:22.401Z,7.54
2019-01-13T21:43:53.635Z,7.52
2019-01-13T21:46:24.792Z,7.52
2019-01-13T21:48:56.044Z,7.52
2019-01-13T21:51:27.299Z,7.50
2019-01-13T21:53:58.637Z,7.48
2019-01-13T21:56:30.846Z,7.48
2019-01-13T21:59:02.057Z,7.47
2019-01-13T22:01:35.596Z,7.45
2019-01-13T22:04:07.299Z,7.44
2019-01-13T22:06:38.581Z,7.43
2019-01-13T22:09:12.172Z,7.41
2019-01-13T22:11:43.339Z,7.39
2019-01-13T22:14:14.518Z,7.40
2019-01-13T22:16:45.661Z,7.39
2019-01-13T22:19:16.900Z,7.38
2019-01-13T22:21:48.148Z,7.38
2019-01-13T22:24:19.354Z,7.38
2019-01-13T22:26:50.580Z,7.38
2019-01-13T22:29:21.891Z,7.39
2019-01-13T22:31:53.139Z,7.39
2019-01-13T22:34:24.306Z,7.39
2019-01-13T22:36:55.481Z,7.42
2019-01-13T22:39:26.655Z,7.43
2019-01-13T22:41:57.897Z,7.42
2019-01-13T22:44:29.019Z,7.44
2019-01-13T22:47:00.261Z,7.45
2019-01-13T22:49:31.452Z,7.46
2019-01-13T22:52:02.712Z,7.45
2019-01-13T22:54:33.981Z,7.44
2019-01-13T22:57:05.163Z,7.41
2019-01-13T22:59:36.439Z,7.41
2019-01-13T23:02:07.773Z,7.39
2019-01-13T23:04:38.979Z,7.36
2019-01-13T23:07:10.164Z,7.35
2019-01-13T23:09:41.311Z,7.31
2019-01-13T23:12:12.566Z,7.32
2019-01-13T23:14:43.868Z,7.31
2019-01-13T23:17:15.010Z,7.31
2019-01-13T23:19:46.200Z,7.31
2019-01-13T23:22:18.369Z,7.30
2019-01-13T23:24:49.575Z,7.29
2019-01-13T23:27:20.753Z,7.28
2019-01-13T23:29:51.977Z,7.25
2019-01-13T23:32:23.236Z,7.22
2019-01-13T23:34:54.420Z,7.20
2019-01-13T23:37:25.670Z,7.18
2019-01-13T23:39:56.832Z,7.15
2019-01-13T23:42:28.074Z,7.12
2019-01-13T23:44:59.245Z,7.09
2019-01-13T23:47:30.537Z,7.06
2019-01-13T23:50:01.722Z,7.06
2019-01-13T23:52:32.965Z,7.03
2019-01-13T23:55:04.213Z,7.00
2019-01-13T23:57:35.381Z,6.94
